createdAt,value
2023-01-15T00:04:52.171Z,90.63
2023-01-15T00:09:54.265Z,90.36
2023-01-15T00:14:58.299Z,90.92
2023-01-15T00:20:00.453Z,91.06
2023-01-15T00:25:21.572Z,91.57
2023-01-15T00:30:24.888Z,91.19
2023-01-15T00:35:27.041Z,91.14
2023-01-15T00:40:29.240Z,90.87
2023-01-15T00:45:31.361Z,91.21
2023-01-15T00:50:34.325Z,91.17
2023-01-15T00:55:36.456Z,91.06
2023-01-15T01:00:38.813Z,91.23
2023-01-15T01:05:40.944Z,91.05
2023-01-15T01:10:43.558Z,90.99
2023-01-15T01:15:45.658Z,91.06
2023-01-15T01:20:47.826Z,90.78
2023-01-15T01:25:50.034Z,90.43
2023-01-15T01:30:52.157Z,90.28
2023-01-15T01:35:54.227Z,90.39
2023-01-15T01:40:56.386Z,90.32
2023-01-15T01:45:58.583Z,89.94
2023-01-15T01:51:03.052Z,90.16
2023-01-15T01:56:09.030Z,90.64
2023-01-15T02:01:11.305Z,90.75
2023-01-15T02:06:15.699Z,90.59
2023-01-15T02:11:21.552Z,90.99
2023-01-15T02:16:42.153Z,90.78
2023-01-15T02:21:56.466Z,90.75
2023-01-15T02:27:15.016Z,91.14
2023-01-15T02:32:26.918Z,90.75
2023-01-15T02:37:33.300Z,90.72
2023-01-15T02:42:37.421Z,91.08
2023-01-15T02:47:43.580Z,91.30
2023-01-15T02:52:49.552Z,90.95
2023-01-15T02:57:55.780Z,90.58
2023-01-15T03:03:13.587Z,90.32
2023-01-15T03:08:15.817Z,90.16
2023-01-15T03:13:29.973Z,90.51
2023-01-15T03:18:37.346Z,90.59
2023-01-15T03:23:46.042Z,90.39
2023-01-15T03:28:49.752Z,90.70
2023-01-15T03:33:51.881Z,91.08
2023-01-15T03:38:55.487Z,90.67
2023-01-15T03:44:10.180Z,91.07
2023-01-15T03:49:30.903Z,90.92
2023-01-15T03:54:37.313Z,91.36
2023-01-15T03:59:47.823Z,91.41
2023-01-15T04:04:52.052Z,91.73
2023-01-15T04:09:54.454Z,91.50
2023-01-15T04:14:56.564Z,91.03
2023-01-15T04:19:58.664Z,90.23
2023-01-15T04:25:00.793Z,89.61
2023-01-15T04:30:03.575Z,89.06
2023-01-15T04:35:06.113Z,89.41
2023-01-15T04:40:09.446Z,89.67
2023-01-15T04:45:11.616Z,89.48
2023-01-15T04:50:13.728Z,89.36
2023-01-15T04:55:15.936Z,89.02
2023-01-15T05:00:18.588Z,89.07
2023-01-15T05:05:20.697Z,89.36
2023-01-15T05:10:22.953Z,89.58
2023-01-15T05:15:25.072Z,89.57
2023-01-15T05:20:27.251Z,89.77
2023-01-15T05:25:29.380Z,89.69
2023-01-15T05:30:31.558Z,89.49
2023-01-15T05:35:33.698Z,89.09
2023-01-15T05:40:36.638Z,89.09
2023-01-15T05:45:38.769Z,89.25
2023-01-15T05:50:40.922Z,89.17
2023-01-15T05:55:42.977Z,88.76
2023-01-15T06:00:45.050Z,88.98
2023-01-15T06:05:51.263Z,89.38
2023-01-15T06:10:53.378Z,89.71
2023-01-15T06:15:55.718Z,89.90
2023-01-15T06:21:02.421Z,90.26
2023-01-15T06:26:08.120Z,90.29
2023-01-15T06:31:12.807Z,90.43
2023-01-15T06:36:24.055Z,90.24
2023-01-15T06:41:45.645Z,90.04
2023-01-15T06:47:08.535Z,90.04
2023-01-15T06:52:10.624Z,89.95
2023-01-15T06:57:13.221Z,89.97
2023-01-15T07:02:15.497Z,89.83
2023-01-15T07:07:19.333Z,89.60
2023-01-15T07:12:22.325Z,89.69
2023-01-15T07:17:24.482Z,89.39
2023-01-15T07:22:26.622Z,89.47
2023-01-15T07:27:28.755Z,89.24
2023-01-15T07:32:31.151Z,89.02
2023-01-15T07:37:33.318Z,88.89
2023-01-15T07:42:53.933Z,89.04
2023-01-15T07:48:14.564Z,88.62
2023-01-15T07:53:16.736Z,88.32
2023-01-15T07:58:20.931Z,88.17
2023-01-15T08:03:23.097Z,87.96
2023-01-15T08:08:25.214Z,88.22
2023-01-15T08:13:46.112Z,88.12
2023-01-15T08:18:48.289Z,88.12
2023-01-15T08:23:51.219Z,87.97
2023-01-15T08:28:56.291Z,87.70
2023-01-15T08:33:58.513Z,87.07
2023-01-15T08:39:00.837Z,85.88
2023-01-15T08:44:03.073Z,86.28
2023-01-15T08:49:06.571Z,85.48
2023-01-15T08:54:08.752Z,84.67
2023-01-15T08:59:10.944Z,84.50
2023-01-15T09:04:18.236Z,83.43
2023-01-15T09:09:20.502Z,83.61
2023-01-15T09:14:59.770Z,83.08
2023-01-15T09:19:44.765Z,82.96
2023-01-15T09:24:47.240Z,82.61
2023-01-15T09:29:49.313Z,82.13
2023-01-15T09:34:51.381Z,81.14
2023-01-15T09:39:53.492Z,81.10
2023-01-15T09:45:15.178Z,81.08
2023-01-15T09:50:21.058Z,80.67
2023-01-15T09:55:29.764Z,79.83
2023-01-15T10:00:41.037Z,78.23
2023-01-15T10:06:18.336Z,78.79
2023-01-15T10:11:58.837Z,78.49
2023-01-15T10:17:00.989Z,78.48
2023-01-15T10:22:12.683Z,77.83
2023-01-15T10:27:20.525Z,75.96
2023-01-15T10:32:37.868Z,75.35
2023-01-15T10:37:51.614Z,75.48
2023-01-15T10:43:38.588Z,75.51
2023-01-15T10:48:47.610Z,74.41
2023-01-15T10:54:02.425Z,70.44
2023-01-15T10:59:22.776Z,71.70
2023-01-15T11:04:33.155Z,72.42
2023-01-15T11:09:36.569Z,71.97
2023-01-15T11:15:02.619Z,72.57
2023-01-15T11:20:17.610Z,71.77
2023-01-15T11:25:29.517Z,70.69
2023-01-15T11:30:37.713Z,69.90
2023-01-15T11:35:50.886Z,69.22
2023-01-15T11:41:04.881Z,69.05
2023-01-15T11:46:51.508Z,68.58
2023-01-15T11:51:55.843Z,68.80
2023-01-15T11:56:59.061Z,65.16
2023-01-15T12:02:22.109Z,66.19
2023-01-15T12:07:27.145Z,65.90
2023-01-15T12:12:52.999Z,67.52
2023-01-15T12:18:04.228Z,67.00
2023-01-15T12:23:15.071Z,65.73
2023-01-15T12:28:29.311Z,67.07
2023-01-15T12:33:53.949Z,68.50
2023-01-15T12:39:00.567Z,68.81
2023-01-15T12:44:21.963Z,68.10
2023-01-15T12:49:51.442Z,70.06
2023-01-15T12:55:06.177Z,69.81
2023-01-15T13:00:18.749Z,69.36
2023-01-15T13:05:32.921Z,66.94
2023-01-15T13:10:36.631Z,66.12
2023-01-15T13:15:42.509Z,66.92
2023-01-15T13:20:51.342Z,68.29
2023-01-15T13:26:06.129Z,68.76
2023-01-15T13:31:08.319Z,69.19
2023-01-15T13:36:18.962Z,69.52
2023-01-15T13:41:45.566Z,69.72
2023-01-15T13:46:59.582Z,69.32
2023-01-15T13:52:04.868Z,69.22
2023-01-15T13:57:23.082Z,69.43
2023-01-15T14:02:34.796Z,69.59
2023-01-15T14:07:37.869Z,69.70
2023-01-15T14:12:48.741Z,70.06
2023-01-15T14:17:59.009Z,70.50
2023-01-15T14:23:13.219Z,70.98
2023-01-15T14:28:36.815Z,70.78
2023-01-15T14:33:54.156Z,70.22
2023-01-15T14:39:01.837Z,70.98
2023-01-15T14:44:05.244Z,70.69
2023-01-15T14:49:31.138Z,69.61
2023-01-15T14:54:34.036Z,69.29
2023-01-15T14:59:36.124Z,69.12
2023-01-15T15:04:44.387Z,69.29
2023-01-15T15:10:13.838Z,70.28
2023-01-15T15:15:25.592Z,71.14
2023-01-15T15:20:36.852Z,71.47
2023-01-15T15:25:40.037Z,71.54
2023-01-15T15:30:46.295Z,71.46
2023-01-15T15:36:00.990Z,71.38
2023-01-15T15:41:10.167Z,71.72
2023-01-15T15:46:51.742Z,71.74
2023-01-15T15:51:54.882Z,71.86
2023-01-15T15:57:03.305Z,71.96
2023-01-15T16:02:23.655Z,71.78
2023-01-15T16:07:29.685Z,71.77
2023-01-15T16:12:37.020Z,72.17
2023-01-15T16:17:42.088Z,72.47
2023-01-15T16:22:46.415Z,73.29
2023-01-15T16:27:48.546Z,73.99
2023-01-15T16:32:52.571Z,74.26
2023-01-15T16:38:00.642Z,74.92
2023-01-15T16:43:22.597Z,74.88
2023-01-15T16:48:30.009Z,75.04
2023-01-15T16:53:40.975Z,75.10
2023-01-15T16:58:43.812Z,75.34
2023-01-15T17:03:45.924Z,74.63
2023-01-15T17:08:49.698Z,75.22
2023-01-15T17:14:06.680Z,76.15
2023-01-15T17:19:11.806Z,77.70
2023-01-15T17:24:14.644Z,77.94
2023-01-15T17:29:18.765Z,78.36
2023-01-15T17:34:25.196Z,79.20
2023-01-15T17:39:27.323Z,80.23
2023-01-15T17:44:29.389Z,80.76
2023-01-15T17:49:31.671Z,80.67
2023-01-15T17:55:12.449Z,81.45
2023-01-15T18:00:33.865Z,81.60
2023-01-15T18:05:36.426Z,81.94
2023-01-15T18:10:38.990Z,83.30
2023-01-15T18:15:41.527Z,83.61
2023-01-15T18:20:43.848Z,84.19
2023-01-15T18:25:47.393Z,84.00
2023-01-15T18:30:49.563Z,84.62
2023-01-15T18:36:11.407Z,85.11
2023-01-15T18:41:35.035Z,86.22
2023-01-15T18:46:47.276Z,87.07
2023-01-15T18:52:12.186Z,92.52
2023-01-15T18:57:15.673Z,94.35
2023-01-15T19:02:19.371Z,95.03
2023-01-15T19:07:21.705Z,94.73
2023-01-15T19:12:23.933Z,94.65
2023-01-15T19:17:44.695Z,93.38
2023-01-15T19:22:59.763Z,92.90
2023-01-15T19:28:01.976Z,92.98
2023-01-15T19:33:04.628Z,92.78
2023-01-15T19:38:08.617Z,92.75
2023-01-15T19:43:29.916Z,92.73
2023-01-15T19:48:52.567Z,92.89
2023-01-15T19:53:54.652Z,92.90
2023-01-15T19:58:56.676Z,92.98
2023-01-15T20:03:58.761Z,92.81
2023-01-15T20:09:00.930Z,93.05
2023-01-15T20:14:03.029Z,93.12
2023-01-15T20:19:05.184Z,93.26
2023-01-15T20:24:07.371Z,93.45
2023-01-15T20:29:09.501Z,93.10
2023-01-15T20:34:11.599Z,92.38
2023-01-15T20:39:16.143Z,91.88
2023-01-15T20:44:44.620Z,92.03
2023-01-15T20:49:46.788Z,90.96
2023-01-15T20:54:49.095Z,90.49
2023-01-15T20:59:51.271Z,90.30
2023-01-15T21:04:53.349Z,90.40
2023-01-15T21:09:55.420Z,89.83
2023-01-15T21:14:57.538Z,90.19
2023-01-15T21:19:59.637Z,90.44
2023-01-15T21:25:01.829Z,90.90
2023-01-15T21:30:05.278Z,89.39
2023-01-15T21:35:07.783Z,89.23
2023-01-15T21:40:13.423Z,89.68
2023-01-15T21:45:15.615Z,90.24
2023-01-15T21:50:18.264Z,89.91
2023-01-15T21:55:20.352Z,90.17
2023-01-15T22:00:22.483Z,90.90
2023-01-15T22:05:24.608Z,91.30
2023-01-15T22:10:26.718Z,91.43
2023-01-15T22:15:28.878Z,91.34
2023-01-15T22:20:31.086Z,91.35
2023-01-15T22:25:34.455Z,91.55
2023-01-15T22:30:38.369Z,92.27
2023-01-15T22:35:40.472Z,92.62
2023-01-15T22:40:42.554Z,93.03
2023-01-15T22:45:44.763Z,92.92
2023-01-15T22:50:46.901Z,93.01
2023-01-15T22:55:56.272Z,92.87
2023-01-15T23:00:58.560Z,92.18
2023-01-15T23:06:06.163Z,91.45
2023-01-15T23:11:10.672Z,90.94
2023-01-15T23:16:12.777Z,91.04
2023-01-15T23:21:18.667Z,90.12
2023-01-15T23:26:21.623Z,89.73
2023-01-15T23:31:24.600Z,89.57
2023-01-15T23:36:27.085Z,89.97
2023-01-15T23:41:48.085Z,90.52
2023-01-15T23:46:50.241Z,90.92
2023-01-15T23:51:52.809Z,90.84
2023-01-15T23:56:55.773Z,90.19
